16°C Temp
9°C Dewpoint
63% Humidity
Temperature
13 KM/H
8 MPH
7 KTS
60°
East North
East

Wind Speed
Clear
Conditions
Pressure 1027.92 (hPa) - 30.35 (in)
Visibility 6.2 (mi) - 10.0 (km)

Current Conditions
LIPR
Location 40(km)
Metar :LIPR 191050Z 06007KT CAVOK 16/09 Q1028
Tue 19th October 12:50 pm

Airport
  Metar Aviation API Data Provided by https://www.checkwx.com/ PHP scripts by weather34.com ©2021